createdAt,value
2019-03-15T00:00:57.092Z,989.73
2019-03-15T00:01:57.085Z,989.72
2019-03-15T00:02:57.077Z,989.76
2019-03-15T00:03:57.073Z,989.78
2019-03-15T00:04:57.056Z,989.77
2019-03-15T00:05:57.045Z,989.89
2019-03-15T00:06:57.033Z,989.74
2019-03-15T00:07:57.029Z,989.72
2019-03-15T00:08:57.426Z,989.90
2019-03-15T00:09:57.013Z,989.83
2019-03-15T00:10:56.988Z,989.89
2019-03-15T00:11:56.972Z,989.90
2019-03-15T00:12:57.019Z,989.94
2019-03-15T00:13:56.952Z,989.93
2019-03-15T00:14:56.951Z,989.92
2019-03-15T00:15:56.933Z,989.66
2019-03-15T00:16:56.919Z,990.02
2019-03-15T00:17:56.911Z,989.96
2019-03-15T00:18:56.925Z,989.86
2019-03-15T00:19:56.891Z,989.92
2019-03-15T00:20:56.884Z,989.87
2019-03-15T00:21:56.862Z,990.02
2019-03-15T00:22:56.853Z,989.92
2019-03-15T00:23:56.846Z,990.02
2019-03-15T00:24:57.021Z,990.01
2019-03-15T00:25:56.823Z,989.95
2019-03-15T00:26:56.808Z,990.10
2019-03-15T00:27:56.804Z,990.04
2019-03-15T00:28:56.786Z,989.96
2019-03-15T00:29:56.782Z,990.06
2019-03-15T00:30:56.783Z,990.06
2019-03-15T00:31:56.762Z,990.02
2019-03-15T00:32:56.743Z,990.01
2019-03-15T00:33:56.736Z,990.07
2019-03-15T00:34:56.726Z,990.07
2019-03-15T00:35:56.711Z,990.16
2019-03-15T00:36:56.719Z,990.15
2019-03-15T00:37:56.779Z,990.21
2019-03-15T00:38:56.683Z,990.20
2019-03-15T00:39:56.676Z,990.15
2019-03-15T00:40:56.665Z,990.22
2019-03-15T00:41:56.651Z,990.26
2019-03-15T00:42:56.637Z,990.25
2019-03-15T00:43:56.634Z,990.28
2019-03-15T00:44:56.620Z,990.13
2019-03-15T00:45:56.618Z,990.23
2019-03-15T00:46:56.592Z,990.29
2019-03-15T00:47:56.585Z,990.23
2019-03-15T00:48:56.569Z,990.24
2019-03-15T00:49:56.560Z,990.33
2019-03-15T00:50:56.682Z,990.09
2019-03-15T00:51:56.536Z,990.40
2019-03-15T00:52:56.525Z,990.38
2019-03-15T00:53:56.519Z,990.27
2019-03-15T00:54:56.512Z,990.36
2019-03-15T00:55:56.497Z,990.28
2019-03-15T00:56:56.493Z,990.26
2019-03-15T00:57:56.473Z,990.39
2019-03-15T00:58:56.470Z,990.38
2019-03-15T00:59:56.459Z,990.38
2019-03-15T01:00:56.450Z,990.37
2019-03-15T01:01:56.444Z,990.38
2019-03-15T01:02:56.439Z,990.49
2019-03-15T01:03:56.407Z,990.39
2019-03-15T01:04:56.398Z,990.45
2019-03-15T01:05:56.394Z,990.34
2019-03-15T01:06:56.397Z,990.43
2019-03-15T01:07:56.377Z,990.46
2019-03-15T01:08:56.359Z,990.47
2019-03-15T01:09:56.353Z,990.59
2019-03-15T01:10:56.340Z,990.47
2019-03-15T01:11:56.338Z,990.61
2019-03-15T01:12:56.327Z,990.52
2019-03-15T01:13:56.308Z,990.57
2019-03-15T01:14:56.290Z,990.52
2019-03-15T01:15:56.288Z,990.47
2019-03-15T01:16:56.274Z,990.52
2019-03-15T01:17:56.290Z,990.54
2019-03-15T01:18:56.255Z,990.52
2019-03-15T01:19:56.245Z,990.46
2019-03-15T01:20:56.234Z,990.53
2019-03-15T01:21:56.214Z,990.59
2019-03-15T01:22:56.205Z,990.58
2019-03-15T01:23:56.284Z,990.56
2019-03-15T01:24:56.185Z,990.58
2019-03-15T01:25:56.175Z,990.57
2019-03-15T01:26:56.168Z,990.51
2019-03-15T01:27:56.149Z,990.55
2019-03-15T01:28:56.148Z,990.61
2019-03-15T01:29:56.133Z,990.55
2019-03-15T01:30:56.117Z,990.59
2019-03-15T01:31:56.112Z,990.62
2019-03-15T01:32:56.101Z,990.63
2019-03-15T01:33:56.096Z,990.63
2019-03-15T01:34:56.095Z,990.60
2019-03-15T01:35:56.065Z,990.69
2019-03-15T01:36:56.054Z,990.56
2019-03-15T01:37:56.071Z,990.60
2019-03-15T01:38:56.038Z,990.64
2019-03-15T01:39:56.032Z,990.68
2019-03-15T01:40:56.017Z,990.65
2019-03-15T01:41:56.438Z,990.61
2019-03-15T01:42:55.990Z,990.74
2019-03-15T01:43:55.983Z,990.70
2019-03-15T01:44:55.991Z,990.69
2019-03-15T01:45:55.962Z,990.67
2019-03-15T01:46:55.948Z,990.64
2019-03-15T01:47:55.938Z,990.69
2019-03-15T01:48:55.926Z,990.65
2019-03-15T01:49:55.935Z,990.67
2019-03-15T01:50:55.910Z,990.64
2019-03-15T01:51:55.899Z,990.62
2019-03-15T01:52:55.881Z,990.64
2019-03-15T01:53:55.877Z,990.70
2019-03-15T01:54:55.868Z,990.71
2019-03-15T01:55:55.858Z,990.64
2019-03-15T01:56:55.848Z,990.72
2019-03-15T01:57:55.831Z,990.77
2019-03-15T01:58:55.837Z,990.71
2019-03-15T01:59:55.807Z,990.71
2019-03-15T02:00:55.805Z,990.77
2019-03-15T02:01:56.835Z,990.65
2019-03-15T02:02:55.774Z,990.72
2019-03-15T02:03:55.771Z,990.71
2019-03-15T02:04:55.760Z,990.74
2019-03-15T02:05:55.760Z,990.80
2019-03-15T02:06:55.741Z,990.80
2019-03-15T02:07:55.755Z,990.85
2019-03-15T02:08:55.712Z,990.90
2019-03-15T02:09:55.723Z,990.87
2019-03-15T02:10:55.696Z,990.78
2019-03-15T02:11:55.744Z,990.80
2019-03-15T02:12:55.675Z,990.82
2019-03-15T02:13:55.658Z,990.87
2019-03-15T02:14:55.660Z,990.85
2019-03-15T02:15:55.636Z,990.87
2019-03-15T02:16:55.629Z,990.89
2019-03-15T02:17:55.645Z,990.89
2019-03-15T02:18:55.615Z,990.83
2019-03-15T02:19:55.591Z,990.85
2019-03-15T02:20:55.594Z,990.82
2019-03-15T02:21:55.631Z,990.89
2019-03-15T02:22:55.566Z,990.91
2019-03-15T02:23:55.574Z,990.84
2019-03-15T02:24:55.551Z,990.91
2019-03-15T02:25:55.534Z,990.94
2019-03-15T02:26:55.519Z,990.96
2019-03-15T02:27:55.506Z,990.89
2019-03-15T02:28:55.514Z,991.00
2019-03-15T02:29:55.491Z,990.96
2019-03-15T02:30:55.476Z,990.99
2019-03-15T02:31:55.470Z,990.98
2019-03-15T02:32:55.466Z,991.09
2019-03-15T02:33:55.460Z,990.93
2019-03-15T02:34:55.434Z,991.11
2019-03-15T02:35:55.440Z,991.05
2019-03-15T02:36:55.410Z,991.06
2019-03-15T02:37:55.417Z,991.07
2019-03-15T02:38:55.388Z,991.11
2019-03-15T02:39:55.389Z,991.13
2019-03-15T02:40:55.393Z,991.15
2019-03-15T02:41:55.459Z,991.17
2019-03-15T02:42:55.378Z,991.18
2019-03-15T02:43:55.347Z,991.17
2019-03-15T02:44:55.346Z,991.16
2019-03-15T02:45:55.315Z,991.13
2019-03-15T02:46:55.439Z,991.16
2019-03-15T02:47:55.314Z,991.19
2019-03-15T02:48:55.307Z,991.13
2019-03-15T02:49:55.280Z,991.14
2019-03-15T02:50:56.197Z,991.14
2019-03-15T02:51:55.259Z,991.21
2019-03-15T02:52:55.243Z,991.18
2019-03-15T02:53:55.235Z,991.20
2019-03-15T02:54:55.224Z,991.13
2019-03-15T02:55:55.205Z,991.21
2019-03-15T02:56:55.200Z,991.20
2019-03-15T02:57:55.191Z,991.18
2019-03-15T02:58:55.182Z,991.27
2019-03-15T02:59:55.184Z,991.18
2019-03-15T03:00:55.159Z,991.20
2019-03-15T03:01:55.147Z,991.22
2019-03-15T03:02:55.137Z,991.14
2019-03-15T03:03:55.132Z,991.24
2019-03-15T03:04:55.113Z,991.23
2019-03-15T03:05:55.099Z,991.23
2019-03-15T03:06:55.115Z,991.28
2019-03-15T03:07:55.076Z,991.19
2019-03-15T03:08:55.071Z,991.19
2019-03-15T03:09:55.059Z,991.26
2019-03-15T03:10:55.920Z,991.11
2019-03-15T03:11:55.034Z,991.27
2019-03-15T03:12:55.032Z,991.25
2019-03-15T03:13:55.025Z,991.29
2019-03-15T03:15:05.644Z,991.34
2019-03-15T03:15:55.000Z,991.34
2019-03-15T03:16:54.982Z,991.38
2019-03-15T03:17:54.987Z,991.37
2019-03-15T03:18:54.957Z,991.40
2019-03-15T03:19:54.975Z,991.30
2019-03-15T03:20:54.938Z,991.43
2019-03-15T03:21:55.198Z,991.36
2019-03-15T03:22:54.922Z,991.43
2019-03-15T03:23:54.951Z,991.44
2019-03-15T03:24:54.902Z,991.35
2019-03-15T03:25:54.881Z,991.36
2019-03-15T03:26:54.877Z,991.47
2019-03-15T03:27:54.867Z,991.52
2019-03-15T03:28:54.857Z,991.48
2019-03-15T03:29:54.887Z,991.44
2019-03-15T03:30:54.837Z,991.59
2019-03-15T03:31:54.819Z,991.46
2019-03-15T03:32:54.827Z,991.59
2019-03-15T03:33:54.818Z,991.68
2019-03-15T03:34:54.786Z,991.64
2019-03-15T03:35:54.784Z,991.67
2019-03-15T03:36:57.742Z,991.74
2019-03-15T03:37:54.759Z,991.73
2019-03-15T03:38:54.741Z,991.77
2019-03-15T03:39:54.738Z,991.79
2019-03-15T03:40:56.305Z,991.81
2019-03-15T03:41:54.726Z,991.75
2019-03-15T03:42:54.710Z,991.81
2019-03-15T03:43:54.688Z,991.78
2019-03-15T03:44:54.687Z,991.83
2019-03-15T03:45:54.667Z,991.87
2019-03-15T03:46:54.665Z,991.78
2019-03-15T03:47:54.681Z,991.85
2019-03-15T03:48:54.638Z,991.85
2019-03-15T03:49:54.623Z,991.92
2019-03-15T03:50:54.611Z,991.91
2019-03-15T03:51:54.605Z,991.93
2019-03-15T03:52:54.604Z,991.95
2019-03-15T03:53:54.604Z,991.89
2019-03-15T03:54:54.570Z,991.91
2019-03-15T03:55:54.562Z,991.96
2019-03-15T03:56:54.552Z,992.05
2019-03-15T03:57:54.545Z,991.92
2019-03-15T03:58:54.531Z,991.99
2019-03-15T03:59:54.525Z,991.92
2019-03-15T04:00:54.502Z,991.97
2019-03-15T04:01:54.495Z,992.01
2019-03-15T04:02:54.493Z,992.04
2019-03-15T04:03:54.484Z,992.03
2019-03-15T04:04:54.481Z,991.99
2019-03-15T04:05:54.482Z,992.00
2019-03-15T04:06:54.438Z,992.00
2019-03-15T04:07:54.468Z,991.99
2019-03-15T04:08:54.423Z,992.03
2019-03-15T04:09:54.417Z,992.10
2019-03-15T04:10:54.393Z,992.06
2019-03-15T04:11:55.883Z,992.04
2019-03-15T04:12:54.378Z,992.03
2019-03-15T04:13:54.366Z,992.17
2019-03-15T04:14:54.354Z,992.15
2019-03-15T04:15:54.339Z,992.15
2019-03-15T04:16:54.329Z,992.19
2019-03-15T04:17:54.372Z,992.15
2019-03-15T04:18:54.342Z,992.15
2019-03-15T04:19:54.301Z,992.06
2019-03-15T04:20:54.294Z,992.13
2019-03-15T04:21:54.279Z,992.13
2019-03-15T04:22:55.456Z,992.15
2019-03-15T04:23:54.266Z,992.21
2019-03-15T04:24:54.253Z,992.18
2019-03-15T04:25:54.237Z,992.24
2019-03-15T04:26:54.226Z,992.06
2019-03-15T04:27:54.208Z,992.12
2019-03-15T04:28:56.824Z,992.19
2019-03-15T04:29:54.189Z,992.09
2019-03-15T04:30:54.176Z,992.11
2019-03-15T04:31:54.168Z,992.19
2019-03-15T04:32:54.183Z,992.31
2019-03-15T04:33:54.145Z,992.30
2019-03-15T04:34:54.178Z,992.29
2019-03-15T04:35:54.143Z,992.21
2019-03-15T04:36:54.117Z,992.25
2019-03-15T04:37:54.099Z,992.23
2019-03-15T04:38:54.095Z,992.21
2019-03-15T04:39:54.083Z,992.31
2019-03-15T04:40:54.077Z,992.33
2019-03-15T04:41:54.099Z,992.32
2019-03-15T04:42:54.052Z,992.22
2019-03-15T04:43:54.039Z,992.38
2019-03-15T04:44:54.028Z,992.35
2019-03-15T04:45:54.021Z,992.46
2019-03-15T04:46:54.002Z,992.43
2019-03-15T04:47:54.020Z,992.50
2019-03-15T04:48:53.983Z,992.41
2019-03-15T04:49:53.978Z,992.58
2019-03-15T04:50:53.965Z,992.47
2019-03-15T04:51:53.954Z,992.59
2019-03-15T04:52:53.938Z,992.57
2019-03-15T04:53:53.958Z,992.49
2019-03-15T04:54:53.918Z,992.55
2019-03-15T04:55:53.916Z,992.49
2019-03-15T04:56:53.898Z,992.50
2019-03-15T04:57:53.889Z,992.58
2019-03-15T04:58:53.878Z,992.67
2019-03-15T04:59:53.882Z,992.58
2019-03-15T05:00:53.859Z,992.54
2019-03-15T05:01:53.898Z,992.57
2019-03-15T05:02:53.834Z,992.56
2019-03-15T05:03:53.824Z,992.66
2019-03-15T05:04:53.831Z,992.65
2019-03-15T05:06:03.210Z,992.53
2019-03-15T05:06:54.855Z,992.59
2019-03-15T05:07:53.785Z,992.59
2019-03-15T05:08:53.849Z,992.67
2019-03-15T05:09:53.782Z,992.57
2019-03-15T05:10:53.748Z,992.66
2019-03-15T05:11:53.764Z,992.73
2019-03-15T05:12:53.756Z,992.60
2019-03-15T05:13:53.720Z,992.71
2019-03-15T05:14:53.709Z,992.83
2019-03-15T05:15:53.691Z,992.73
2019-03-15T05:16:53.682Z,992.77
2019-03-15T05:17:53.672Z,992.79
2019-03-15T05:18:53.666Z,992.72
2019-03-15T05:19:53.649Z,992.75
2019-03-15T05:20:53.644Z,992.74
2019-03-15T05:21:53.626Z,992.76
2019-03-15T05:22:53.619Z,992.78
2019-03-15T05:23:53.606Z,992.73
2019-03-15T05:24:53.610Z,992.92
2019-03-15T05:25:53.581Z,992.93
2019-03-15T05:26:53.577Z,992.84
2019-03-15T05:27:53.559Z,992.85
2019-03-15T05:28:53.561Z,992.72
2019-03-15T05:29:53.563Z,992.69
2019-03-15T05:30:53.533Z,992.96
2019-03-15T05:31:53.522Z,992.96
2019-03-15T05:32:53.506Z,993.02
2019-03-15T05:33:53.503Z,992.96
2019-03-15T05:34:53.492Z,992.96
2019-03-15T05:35:53.487Z,992.98
2019-03-15T05:36:53.471Z,993.05
2019-03-15T05:37:53.451Z,992.96
2019-03-15T05:38:53.442Z,993.02
2019-03-15T05:39:53.434Z,993.09
2019-03-15T05:40:53.447Z,992.98
2019-03-15T05:41:53.419Z,993.06
2019-03-15T05:42:53.403Z,993.04
2019-03-15T05:43:53.385Z,993.04
2019-03-15T05:44:53.380Z,993.11
2019-03-15T05:45:53.366Z,993.11
2019-03-15T05:46:53.371Z,993.16
2019-03-15T05:47:53.347Z,992.75
2019-03-15T05:48:53.337Z,993.13
2019-03-15T05:49:53.322Z,993.10
2019-03-15T05:50:53.313Z,992.98
2019-03-15T05:51:53.315Z,993.07
2019-03-15T05:52:53.295Z,993.05
2019-03-15T05:53:53.284Z,993.12
2019-03-15T05:54:53.266Z,993.18
2019-03-15T05:55:53.258Z,993.17
2019-03-15T05:56:53.257Z,993.11
2019-03-15T05:57:53.243Z,993.30
2019-03-15T05:58:53.275Z,993.25
2019-03-15T05:59:53.212Z,993.32
2019-03-15T06:00:53.207Z,993.30
2019-03-15T06:01:53.201Z,993.39
2019-03-15T06:02:53.183Z,993.38
2019-03-15T06:03:53.217Z,993.31
2019-03-15T06:04:53.170Z,993.38
2019-03-15T06:05:53.151Z,993.30
2019-03-15T06:06:53.142Z,993.43
2019-03-15T06:07:53.164Z,993.43
2019-03-15T06:08:53.118Z,993.48
2019-03-15T06:09:53.105Z,993.47
2019-03-15T06:10:54.797Z,993.50
2019-03-15T06:11:53.088Z,993.49
2019-03-15T06:12:53.078Z,993.42
2019-03-15T06:13:53.072Z,993.53
2019-03-15T06:14:53.056Z,993.65
2019-03-15T06:15:53.063Z,993.63
2019-03-15T06:16:53.047Z,993.70
2019-03-15T06:17:53.024Z,993.78
2019-03-15T06:18:53.021Z,993.89
2019-03-15T06:19:53.009Z,993.78
2019-03-15T06:20:52.989Z,993.83
2019-03-15T06:21:52.984Z,993.79
2019-03-15T06:22:52.968Z,993.85
2019-03-15T06:23:52.982Z,993.85
2019-03-15T06:24:52.946Z,993.79
2019-03-15T06:25:52.951Z,993.85
2019-03-15T06:26:52.941Z,993.93
2019-03-15T06:27:52.912Z,993.82
2019-03-15T06:28:52.912Z,993.84
2019-03-15T06:29:52.889Z,993.87
2019-03-15T06:30:52.884Z,993.80
2019-03-15T06:31:52.870Z,993.97
2019-03-15T06:32:52.858Z,993.90
2019-03-15T06:33:52.860Z,993.85
2019-03-15T06:34:52.841Z,993.93
2019-03-15T06:35:52.825Z,993.98
2019-03-15T06:36:52.819Z,993.87
2019-03-15T06:37:52.807Z,993.91
2019-03-15T06:38:52.826Z,993.86
2019-03-15T06:39:52.783Z,993.94
2019-03-15T06:40:52.773Z,993.96
2019-03-15T06:41:53.701Z,993.90
2019-03-15T06:42:52.806Z,993.97
2019-03-15T06:43:52.743Z,994.01
2019-03-15T06:44:57.770Z,993.95
2019-03-15T06:45:53.727Z,993.90
2019-03-15T06:46:52.707Z,993.79
2019-03-15T06:47:52.692Z,993.90
2019-03-15T06:48:52.687Z,993.88
2019-03-15T06:49:53.137Z,993.95
2019-03-15T06:50:52.661Z,993.89
2019-03-15T06:51:52.646Z,993.90
2019-03-15T06:52:52.634Z,993.86
2019-03-15T06:53:52.623Z,993.86
2019-03-15T06:54:52.625Z,993.89
2019-03-15T06:55:52.603Z,993.82
2019-03-15T06:56:52.596Z,993.87
2019-03-15T06:57:52.587Z,993.93
2019-03-15T06:58:52.573Z,993.88
2019-03-15T06:59:52.585Z,993.89
2019-03-15T07:00:54.726Z,993.94
2019-03-15T07:01:52.539Z,993.92
2019-03-15T07:02:52.523Z,993.87
2019-03-15T07:03:52.518Z,993.95
2019-03-15T07:04:52.507Z,994.00
2019-03-15T07:05:52.501Z,994.06
2019-03-15T07:06:52.500Z,994.03
2019-03-15T07:07:52.474Z,993.98
2019-03-15T07:08:52.465Z,994.05
2019-03-15T07:09:52.453Z,994.06
2019-03-15T07:10:52.437Z,994.09
2019-03-15T07:11:52.434Z,994.07
2019-03-15T07:12:52.417Z,994.11
2019-03-15T07:13:52.417Z,994.10
2019-03-15T07:14:52.394Z,994.08
2019-03-15T07:15:52.388Z,994.02
2019-03-15T07:16:52.414Z,994.03
2019-03-15T07:17:52.381Z,993.99
2019-03-15T07:18:52.348Z,994.00
2019-03-15T07:19:52.342Z,994.04
2019-03-15T07:20:52.335Z,993.99
2019-03-15T07:21:52.362Z,994.08
2019-03-15T07:22:52.306Z,994.08
2019-03-15T07:23:52.315Z,993.99
2019-03-15T07:24:52.283Z,993.97
2019-03-15T07:25:52.272Z,994.08
2019-03-15T07:26:52.262Z,994.00
2019-03-15T07:27:52.290Z,994.05
2019-03-15T07:28:52.245Z,994.01
2019-03-15T07:29:52.228Z,994.10
2019-03-15T07:30:52.251Z,994.09
2019-03-15T07:31:52.214Z,994.08
2019-03-15T07:32:52.195Z,994.05
2019-03-15T07:33:52.188Z,994.05
2019-03-15T07:34:52.179Z,994.06
2019-03-15T07:35:52.237Z,994.12
2019-03-15T07:36:55.192Z,994.03
2019-03-15T07:37:52.177Z,994.21
2019-03-15T07:38:52.153Z,994.19
2019-03-15T07:39:52.125Z,994.24
2019-03-15T07:40:52.113Z,994.25
2019-03-15T07:41:52.113Z,994.20
2019-03-15T07:42:52.116Z,994.26
2019-03-15T07:43:52.084Z,994.39
2019-03-15T07:44:52.075Z,994.26
2019-03-15T07:45:52.058Z,994.26
2019-03-15T07:46:52.043Z,994.26
2019-03-15T07:47:52.038Z,994.31
2019-03-15T07:48:52.042Z,994.29
2019-03-15T07:49:52.014Z,994.35
2019-03-15T07:50:52.003Z,994.33
2019-03-15T07:51:52.015Z,994.39
2019-03-15T07:52:51.982Z,994.32
2019-03-15T07:53:51.973Z,994.36
2019-03-15T07:54:51.966Z,994.37
2019-03-15T07:55:51.944Z,994.43
2019-03-15T07:56:51.936Z,994.42
2019-03-15T07:57:51.937Z,994.29
2019-03-15T07:58:51.918Z,994.46
2019-03-15T07:59:51.908Z,994.18
2019-03-15T08:00:51.902Z,994.36
2019-03-15T08:01:52.836Z,994.35
2019-03-15T08:02:51.870Z,994.19
2019-03-15T08:03:51.857Z,994.23
2019-03-15T08:04:51.847Z,994.30
2019-03-15T08:05:51.840Z,994.43
2019-03-15T08:06:51.824Z,994.31
2019-03-15T08:07:51.824Z,994.47
2019-03-15T08:08:51.803Z,994.42
2019-03-15T08:09:51.809Z,994.51
2019-03-15T08:10:54.888Z,994.46
2019-03-15T08:11:51.843Z,994.47
2019-03-15T08:12:51.773Z,994.59
2019-03-15T08:13:51.753Z,994.51
2019-03-15T08:14:51.742Z,994.49
2019-03-15T08:15:51.731Z,994.54
2019-03-15T08:16:51.723Z,994.53
2019-03-15T08:17:51.744Z,994.60
2019-03-15T08:18:51.698Z,994.50
2019-03-15T08:19:51.686Z,994.46
2019-03-15T08:20:51.671Z,994.47
2019-03-15T08:21:51.662Z,994.61
2019-03-15T08:22:51.654Z,994.56
2019-03-15T08:23:51.657Z,994.54
2019-03-15T08:24:52.004Z,994.54
2019-03-15T08:25:51.623Z,994.58
2019-03-15T08:26:51.617Z,994.56
2019-03-15T08:27:51.601Z,994.55
2019-03-15T08:28:51.623Z,994.58
2019-03-15T08:29:52.816Z,994.62
2019-03-15T08:30:51.563Z,994.65
2019-03-15T08:31:51.553Z,994.62
2019-03-15T08:32:51.557Z,994.59
2019-03-15T08:33:51.534Z,994.60
2019-03-15T08:34:51.528Z,994.58
2019-03-15T08:35:51.517Z,994.60
2019-03-15T08:36:51.504Z,994.58
2019-03-15T08:37:51.487Z,994.58
2019-03-15T08:38:51.478Z,994.58
2019-03-15T08:39:51.474Z,994.58
2019-03-15T08:40:51.460Z,994.55
2019-03-15T08:41:51.452Z,994.61
2019-03-15T08:42:51.439Z,994.65
2019-03-15T08:43:51.423Z,994.63
2019-03-15T08:44:51.456Z,994.66
2019-03-15T08:45:51.405Z,994.66
2019-03-15T08:46:51.399Z,994.68
2019-03-15T08:47:51.425Z,994.66
2019-03-15T08:48:51.376Z,994.69
2019-03-15T08:49:51.357Z,994.76
2019-03-15T08:50:51.378Z,994.79
2019-03-15T08:52:03.425Z,994.73
2019-03-15T08:52:54.103Z,994.69
2019-03-15T08:53:51.351Z,994.76
2019-03-15T08:55:04.333Z,994.77
2019-03-15T08:55:52.309Z,994.63
2019-03-15T08:56:51.367Z,994.75
2019-03-15T08:57:51.384Z,994.71
2019-03-15T08:58:51.287Z,994.70
2019-03-15T08:59:56.794Z,994.66
2019-03-15T09:00:52.286Z,994.66
2019-03-15T09:01:51.257Z,994.64
2019-03-15T09:02:51.223Z,994.69
2019-03-15T09:03:51.210Z,994.70
2019-03-15T09:04:51.200Z,994.68
2019-03-15T09:05:51.190Z,994.75
2019-03-15T09:06:51.174Z,994.80
2019-03-15T09:07:51.180Z,994.66
2019-03-15T09:08:51.153Z,994.75
2019-03-15T09:09:51.147Z,994.65
2019-03-15T09:10:51.136Z,994.66
2019-03-15T09:11:51.119Z,994.79
2019-03-15T09:12:51.167Z,994.71
2019-03-15T09:13:51.104Z,994.78
2019-03-15T09:14:51.095Z,994.75
2019-03-15T09:15:51.364Z,994.77
2019-03-15T09:16:51.084Z,994.70
2019-03-15T09:17:51.060Z,994.65
2019-03-15T09:18:51.077Z,994.65
2019-03-15T09:19:51.034Z,994.63
2019-03-15T09:20:51.023Z,994.62
2019-03-15T09:21:51.015Z,994.59
2019-03-15T09:22:51.004Z,994.62
2019-03-15T09:23:50.995Z,994.57
2019-03-15T09:24:50.989Z,994.52
2019-03-15T09:25:50.974Z,994.56
2019-03-15T09:26:50.960Z,994.60
2019-03-15T09:27:50.952Z,994.55
2019-03-15T09:28:50.957Z,994.46
2019-03-15T09:29:50.942Z,994.46
2019-03-15T09:30:50.919Z,994.50
2019-03-15T09:32:04.558Z,994.49
2019-03-15T09:32:51.900Z,994.51
2019-03-15T09:33:50.903Z,994.62
2019-03-15T09:34:50.908Z,994.56
2019-03-15T09:35:50.864Z,994.65
2019-03-15T09:36:50.867Z,994.55
2019-03-15T09:37:50.850Z,994.55
2019-03-15T09:38:50.834Z,994.52
2019-03-15T09:39:50.825Z,994.52
2019-03-15T09:40:50.881Z,994.40
2019-03-15T09:41:50.798Z,994.41
2019-03-15T09:42:50.787Z,994.46
2019-03-15T09:43:50.833Z,994.45
2019-03-15T09:44:50.761Z,994.56
2019-03-15T09:45:50.783Z,994.43
2019-03-15T09:46:50.745Z,994.42
2019-03-15T09:47:50.726Z,994.45
2019-03-15T09:48:50.725Z,994.40
2019-03-15T09:49:50.753Z,994.43
2019-03-15T09:50:51.822Z,994.36
2019-03-15T09:51:50.685Z,994.43
2019-03-15T09:52:50.676Z,994.41
2019-03-15T09:53:50.662Z,994.47
2019-03-15T09:54:50.651Z,994.45
2019-03-15T09:55:50.640Z,994.42
2019-03-15T09:56:50.668Z,994.36
2019-03-15T09:57:50.627Z,994.48
2019-03-15T09:58:50.643Z,994.35
2019-03-15T09:59:50.595Z,994.42
2019-03-15T10:00:50.595Z,994.43
2019-03-15T10:01:50.587Z,994.48
2019-03-15T10:02:50.624Z,994.39
2019-03-15T10:03:50.744Z,994.34
2019-03-15T10:04:50.556Z,994.37
2019-03-15T10:05:50.537Z,994.32
2019-03-15T10:06:50.523Z,994.33
2019-03-15T10:07:50.513Z,994.43
2019-03-15T10:08:50.568Z,994.39
2019-03-15T10:09:50.485Z,994.42
2019-03-15T10:10:50.501Z,994.40
2019-03-15T10:11:50.463Z,994.38
2019-03-15T10:12:50.476Z,994.30
2019-03-15T10:13:50.525Z,994.30
2019-03-15T10:14:50.459Z,994.40
2019-03-15T10:15:50.650Z,994.26
2019-03-15T10:16:50.431Z,994.35
2019-03-15T10:17:50.401Z,994.42
2019-03-15T10:18:50.722Z,994.38
2019-03-15T10:19:50.389Z,994.35
2019-03-15T10:20:50.379Z,994.31
2019-03-15T10:21:50.359Z,994.19
2019-03-15T10:23:04.734Z,994.27
2019-03-15T10:23:51.366Z,994.20
2019-03-15T10:24:50.329Z,994.27
2019-03-15T10:25:51.400Z,994.14
2019-03-15T10:26:50.299Z,994.13
2019-03-15T10:27:50.295Z,994.18
2019-03-15T10:28:50.285Z,994.24
2019-03-15T10:29:50.298Z,994.17
2019-03-15T10:30:50.267Z,994.14
2019-03-15T10:31:50.250Z,994.21
2019-03-15T10:32:50.245Z,994.15
2019-03-15T10:33:51.059Z,994.07
2019-03-15T10:34:50.259Z,994.14
2019-03-15T10:35:50.202Z,994.15
2019-03-15T10:36:50.225Z,994.11
2019-03-15T10:37:50.189Z,994.05
2019-03-15T10:38:50.182Z,994.16
2019-03-15T10:39:50.157Z,994.08
2019-03-15T10:40:50.158Z,994.08
2019-03-15T10:41:50.138Z,994.13
2019-03-15T10:42:50.140Z,994.05
2019-03-15T10:43:50.120Z,993.99
2019-03-15T10:44:50.109Z,994.07
2019-03-15T10:45:50.106Z,994.03
2019-03-15T10:46:50.090Z,993.89
2019-03-15T10:47:50.087Z,994.06
2019-03-15T10:48:50.085Z,994.00
2019-03-15T10:49:50.050Z,994.01
2019-03-15T10:50:50.052Z,993.95
2019-03-15T10:51:50.032Z,993.96
2019-03-15T10:52:50.021Z,993.90
2019-03-15T10:53:50.015Z,993.92
2019-03-15T10:54:50.008Z,993.92
2019-03-15T10:55:59.690Z,993.85
2019-03-15T10:56:50.992Z,993.93
2019-03-15T10:57:49.966Z,993.78
2019-03-15T10:58:49.996Z,993.87
2019-03-15T10:59:49.952Z,993.86
2019-03-15T11:00:49.936Z,993.80
2019-03-15T11:01:49.943Z,993.78
2019-03-15T11:02:49.913Z,993.85
2019-03-15T11:03:49.895Z,993.77
2019-03-15T11:04:49.895Z,993.75
2019-03-15T11:05:49.982Z,993.75
2019-03-15T11:06:49.878Z,993.71
2019-03-15T11:07:49.898Z,993.81
2019-03-15T11:08:49.843Z,993.77
2019-03-15T11:09:49.836Z,993.88
2019-03-15T11:10:49.853Z,993.79
2019-03-15T11:11:49.817Z,993.79
2019-03-15T11:12:49.795Z,993.74
2019-03-15T11:13:49.790Z,993.79
2019-03-15T11:14:49.791Z,993.72
2019-03-15T11:15:49.762Z,993.72
2019-03-15T11:16:49.758Z,993.71
2019-03-15T11:17:49.758Z,993.62
2019-03-15T11:18:49.727Z,993.67
2019-03-15T11:19:49.714Z,993.62
2019-03-15T11:20:49.706Z,993.58
2019-03-15T11:21:49.719Z,993.57
2019-03-15T11:22:49.694Z,993.48
2019-03-15T11:23:49.690Z,993.49
2019-03-15T11:24:49.713Z,993.41
2019-03-15T11:25:49.653Z,993.49
2019-03-15T11:26:49.640Z,993.37
2019-03-15T11:27:49.643Z,993.41
2019-03-15T11:28:49.625Z,993.44
2019-03-15T11:29:49.604Z,993.46
2019-03-15T11:30:49.615Z,993.42
2019-03-15T11:31:49.586Z,993.30
2019-03-15T11:32:49.610Z,993.40
2019-03-15T11:33:49.566Z,993.39
2019-03-15T11:34:49.560Z,993.39
2019-03-15T11:35:49.544Z,993.24
2019-03-15T11:36:58.375Z,993.18
2019-03-15T11:37:50.541Z,993.14
2019-03-15T11:38:49.539Z,993.09
2019-03-15T11:39:49.501Z,993.11
2019-03-15T11:40:49.488Z,993.17
2019-03-15T11:41:49.473Z,993.17
2019-03-15T11:42:49.481Z,993.15
2019-03-15T11:43:49.512Z,993.20
2019-03-15T11:44:49.444Z,993.21
2019-03-15T11:45:49.436Z,993.18
2019-03-15T11:46:49.420Z,993.08
2019-03-15T11:48:02.924Z,993.02
2019-03-15T11:48:50.422Z,993.03
2019-03-15T11:49:49.391Z,992.97
2019-03-15T11:50:49.376Z,993.00
2019-03-15T11:51:49.373Z,992.98
2019-03-15T11:52:49.366Z,993.03
2019-03-15T11:53:49.344Z,993.03
2019-03-15T11:54:49.962Z,993.02
2019-03-15T11:55:49.330Z,993.09
2019-03-15T11:56:50.818Z,993.07
2019-03-15T11:57:49.336Z,993.04
2019-03-15T11:58:49.345Z,993.01
2019-03-15T11:59:49.275Z,992.81
2019-03-15T12:00:49.282Z,992.95
2019-03-15T12:01:49.252Z,992.96
2019-03-15T12:02:49.255Z,993.01
2019-03-15T12:03:53.435Z,992.86
2019-03-15T12:04:49.230Z,992.95
2019-03-15T12:05:49.226Z,993.03
2019-03-15T12:06:49.203Z,992.96
2019-03-15T12:07:49.187Z,992.92
2019-03-15T12:08:49.184Z,992.96
2019-03-15T12:09:49.167Z,992.94
2019-03-15T12:10:49.161Z,992.86
2019-03-15T12:11:49.180Z,992.87
2019-03-15T12:12:49.174Z,992.90
2019-03-15T12:13:49.147Z,992.86
2019-03-15T12:14:49.115Z,992.80
2019-03-15T12:15:49.101Z,992.82
2019-03-15T12:16:49.090Z,992.74
2019-03-15T12:17:49.087Z,992.67
2019-03-15T12:18:49.068Z,992.69
2019-03-15T12:19:49.084Z,992.58
2019-03-15T12:20:49.478Z,992.51
2019-03-15T12:21:49.034Z,992.52
2019-03-15T12:22:49.028Z,992.53
2019-03-15T12:23:49.064Z,992.59
2019-03-15T12:24:49.007Z,992.50
2019-03-15T12:25:49.062Z,992.58
2019-03-15T12:26:49.008Z,992.57
2019-03-15T12:27:48.971Z,992.47
2019-03-15T12:28:48.966Z,992.49